KAL012 KLAX-RKSI
Flight info
| Callsign | KAL012 |
|---|---|
| Flight time | N/A |
| Altitude | 30000 |
| Route | SUMMR2 MCKEY DCT LIBBO DCT BRINY DCT ALCOA DCT DACEM DCT 40N130W 47N140W/N0492F320 51N150W 54N160W 55N170W/N0491F340 55N180E DCT ONEIL G469 NYMPH R220 NUZAN/N0497F350 R220 NUBDA/N0484F360 R220 NODAN R217 ASTER Y514 SDE Y512 GTC Y142 SAMON Y14 SUGNO Y16 SAPRA Y685 GUKDO GUKDO2H |
| Aircraft | B77W/H-SDE1E2E3FGHIJ1J3J5J7M1M3P1RWXYZ/LB2D1 |
Departure
| Time | 2026-05-05 18:03 |
|---|---|
| Airport | Los Angeles International Airport (KLAX) |
Arrival
| Time | N/A |
|---|---|
| Airport | Incheon International Airport (RKSI) |
| Time | Latitude | Longitude | Altitude | Speed | Heading |
|---|---|---|---|---|---|
| 2026-05-05 17:34 | 33.94403 | -118.41137 | 127 ft | 0 kts | 83° |
| 2026-05-05 17:50 | 33.94402 | -118.41149 | 127 ft | 2 kts | 83° |
| 2026-05-05 17:50 | 33.94400 | -118.41167 | 126 ft | 2 kts | 83° |
| 2026-05-05 17:50 | 33.94399 | -118.41172 | 126 ft | 1 kts | 83° |
| 2026-05-05 17:50 | 33.94397 | -118.41190 | 126 ft | 2 kts | 64° |
| 2026-05-05 17:51 | 33.94384 | -118.41209 | 126 ft | 2 kts | 37° |
| 2026-05-05 17:51 | 33.94371 | -118.41217 | 127 ft | 2 kts | 18° |
| 2026-05-05 17:51 | 33.94362 | -118.41220 | 126 ft | 2 kts | 6° |
| 2026-05-05 17:51 | 33.94349 | -118.41220 | 126 ft | 1 kts | 352° |
| 2026-05-05 17:52 | 33.94348 | -118.41220 | 127 ft | 0 kts | 352° |
| 2026-05-05 17:55 | 33.94362 | -118.41222 | 126 ft | 4 kts | 350° |
| 2026-05-05 17:56 | 33.94405 | -118.41238 | 126 ft | 7 kts | 342° |
| 2026-05-05 17:56 | 33.94440 | -118.41248 | 126 ft | 8 kts | 352° |
| 2026-05-05 17:56 | 33.94502 | -118.41258 | 126 ft | 9 kts | 352° |
| 2026-05-05 17:56 | 33.94608 | -118.41274 | 127 ft | 12 kts | 353° |
| 2026-05-05 17:57 | 33.94689 | -118.41286 | 128 ft | 10 kts | 353° |
| 2026-05-05 17:57 | 33.94734 | -118.41292 | 129 ft | 8 kts | 353° |
| 2026-05-05 17:57 | 33.94782 | -118.41288 | 130 ft | 4 kts | 34° |
| 2026-05-05 17:57 | 33.94799 | -118.41238 | 130 ft | 6 kts | 82° |
| 2026-05-05 17:58 | 33.94807 | -118.41170 | 130 ft | 9 kts | 82° |
| 2026-05-05 17:58 | 33.94814 | -118.41110 | 130 ft | 11 kts | 83° |
| 2026-05-05 17:58 | 33.94825 | -118.41010 | 130 ft | 11 kts | 83° |
| 2026-05-05 17:58 | 33.94834 | -118.40916 | 130 ft | 10 kts | 83° |
| 2026-05-05 17:59 | 33.94844 | -118.40813 | 129 ft | 9 kts | 83° |
| 2026-05-05 17:59 | 33.94850 | -118.40747 | 128 ft | 13 kts | 83° |
| 2026-05-05 17:59 | 33.94863 | -118.40634 | 127 ft | 13 kts | 83° |
| 2026-05-05 17:59 | 33.94874 | -118.40527 | 126 ft | 12 kts | 83° |
| 2026-05-05 18:00 | 33.94884 | -118.40424 | 125 ft | 12 kts | 83° |
| 2026-05-05 18:00 | 33.94896 | -118.40317 | 123 ft | 13 kts | 83° |
| 2026-05-05 18:00 | 33.94906 | -118.40211 | 123 ft | 12 kts | 83° |
| 2026-05-05 18:00 | 33.94919 | -118.40076 | 121 ft | 12 kts | 83° |
| 2026-05-05 18:01 | 33.94929 | -118.39980 | 120 ft | 9 kts | 77° |
| 2026-05-05 18:01 | 33.94965 | -118.39926 | 119 ft | 8 kts | 23° |
| 2026-05-05 18:01 | 33.95020 | -118.39930 | 119 ft | 7 kts | 333° |
| 2026-05-05 18:01 | 33.95040 | -118.39967 | 119 ft | 3 kts | 274° |
| 2026-05-05 18:02 | 33.95036 | -118.40012 | 120 ft | 15 kts | 263° |
| 2026-05-05 18:02 | 33.95015 | -118.40219 | 123 ft | 59 kts | 263° |
| 2026-05-05 18:02 | 33.94938 | -118.40969 | 130 ft | 119 kts | 263° |
| 2026-05-05 18:02 | 33.94761 | -118.42686 | 192 ft | 182 kts | 262° |
| 2026-05-05 18:03 | 33.94649 | -118.43703 | 567 ft | 185 kts | 262° |
| 2026-05-05 18:03 | 33.94484 | -118.45231 | 1241 ft | 190 kts | 263° |
| 2026-05-05 18:03 | 33.94327 | -118.46809 | 1900 ft | 193 kts | 264° |
| 2026-05-05 18:03 | 33.94254 | -118.49056 | 2310 ft | 206 kts | 269° |
| 2026-05-05 18:04 | 33.94237 | -118.50802 | 2665 ft | 213 kts | 268° |
| 2026-05-05 18:04 | 33.94172 | -118.52013 | 2825 ft | 222 kts | 264° |
| 2026-05-05 18:04 | 33.93993 | -118.53871 | 3159 ft | 232 kts | 264° |
| 2026-05-05 18:04 | 33.93781 | -118.56536 | 3622 ft | 247 kts | 265° |
| 2026-05-05 18:05 | 33.93673 | -118.57921 | 3842 ft | 256 kts | 265° |
| 2026-05-05 18:05 | 33.93507 | -118.60057 | 4390 ft | 260 kts | 265° |
| 2026-05-05 18:05 | 33.93278 | -118.62972 | 5137 ft | 265 kts | 265° |
| 2026-05-05 18:05 | 33.93103 | -118.65200 | 5722 ft | 268 kts | 265° |
| 2026-05-05 18:06 | 33.92987 | -118.66700 | 6099 ft | 270 kts | 265° |
| 2026-05-05 18:06 | 33.92873 | -118.68176 | 6471 ft | 272 kts | 265° |
| 2026-05-05 18:06 | 33.92638 | -118.71204 | 7242 ft | 275 kts | 266° |
| 2026-05-05 18:06 | 33.92399 | -118.74280 | 8001 ft | 278 kts | 266° |
| 2026-05-05 18:07 | 33.92279 | -118.75819 | 8351 ft | 279 kts | 266° |
| 2026-05-05 18:07 | 33.92099 | -118.78120 | 8956 ft | 280 kts | 266° |
| 2026-05-05 18:07 | 33.91916 | -118.80458 | 9473 ft | 283 kts | 266° |
| 2026-05-05 18:07 | 33.91716 | -118.83615 | 10156 ft | 286 kts | 272° |
| 2026-05-05 18:08 | 33.91752 | -118.85242 | 10441 ft | 290 kts | 274° |
| 2026-05-05 18:08 | 33.91826 | -118.87663 | 10894 ft | 294 kts | 274° |
| 2026-05-05 18:08 | 33.91925 | -118.90938 | 11584 ft | 296 kts | 274° |
| 2026-05-05 18:08 | 33.91974 | -118.92590 | 11741 ft | 304 kts | 274° |
| 2026-05-05 18:09 | 33.92052 | -118.95190 | 11891 ft | 320 kts | 274° |
| 2026-05-05 18:09 | 33.92144 | -118.97923 | 12005 ft | 335 kts | 276° |
| 2026-05-05 18:09 | 33.92527 | -119.00769 | 12140 ft | 349 kts | 286° |
| 2026-05-05 18:09 | 33.93339 | -119.03588 | 12293 ft | 363 kts | 296° |
| 2026-05-05 18:10 | 33.94575 | -119.06292 | 12441 ft | 377 kts | 303° |
| 2026-05-05 18:10 | 33.95972 | -119.08973 | 12847 ft | 383 kts | 303° |
| 2026-05-05 18:10 | 33.97390 | -119.11694 | 13455 ft | 385 kts | 303° |
| 2026-05-05 18:10 | 33.98804 | -119.14417 | 14013 ft | 388 kts | 303° |
| 2026-05-05 18:11 | 34.00308 | -119.17117 | 14518 ft | 391 kts | 309° |
| 2026-05-05 18:11 | 34.02167 | -119.19502 | 15037 ft | 393 kts | 319° |
| 2026-05-05 18:11 | 34.04327 | -119.21516 | 15587 ft | 394 kts | 325° |
| 2026-05-05 18:11 | 34.07310 | -119.24077 | 16305 ft | 397 kts | 325° |
| 2026-05-05 18:12 | 34.08818 | -119.25369 | 16640 ft | 399 kts | 325° |
| 2026-05-05 18:12 | 34.11096 | -119.27324 | 17163 ft | 401 kts | 325° |
| 2026-05-05 18:12 | 34.13351 | -119.29262 | 17663 ft | 404 kts | 325° |
| 2026-05-05 18:12 | 34.15646 | -119.31236 | 18183 ft | 406 kts | 325° |
| 2026-05-05 18:13 | 34.17938 | -119.33209 | 18678 ft | 408 kts | 325° |
| 2026-05-05 18:13 | 34.20281 | -119.35229 | 19155 ft | 411 kts | 325° |
| 2026-05-05 18:13 | 34.22590 | -119.37221 | 19654 ft | 413 kts | 325° |
| 2026-05-05 18:13 | 34.25710 | -119.39915 | 20289 ft | 416 kts | 326° |
| 2026-05-05 18:14 | 34.28081 | -119.41965 | 20764 ft | 418 kts | 326° |
| 2026-05-05 18:14 | 34.29658 | -119.43328 | 21076 ft | 419 kts | 326° |
| 2026-05-05 18:14 | 34.32016 | -119.45369 | 21543 ft | 421 kts | 326° |
| 2026-05-05 18:14 | 34.34388 | -119.47423 | 21984 ft | 422 kts | 326° |
| 2026-05-05 18:15 | 34.36778 | -119.49493 | 22447 ft | 423 kts | 326° |
| 2026-05-05 18:15 | 34.39189 | -119.51585 | 22845 ft | 426 kts | 326° |
| 2026-05-05 18:15 | 34.41445 | -119.53886 | 23212 ft | 431 kts | 317° |
| 2026-05-05 18:15 | 34.43481 | -119.56602 | 23647 ft | 433 kts | 314° |
| 2026-05-05 18:16 | 34.46095 | -119.60303 | 24113 ft | 436 kts | 314° |
| 2026-05-05 18:16 | 34.47412 | -119.62170 | 24261 ft | 440 kts | 314° |
| 2026-05-05 18:16 | 34.49397 | -119.64990 | 24546 ft | 443 kts | 314° |
| 2026-05-05 18:16 | 34.51374 | -119.67799 | 24880 ft | 444 kts | 314° |
| 2026-05-05 18:17 | 34.53376 | -119.70645 | 25175 ft | 446 kts | 314° |
| 2026-05-05 18:17 | 34.55389 | -119.73509 | 25438 ft | 449 kts | 314° |
| 2026-05-05 18:17 | 34.57426 | -119.76409 | 25713 ft | 451 kts | 314° |
| 2026-05-05 18:17 | 34.59463 | -119.79312 | 26003 ft | 454 kts | 315° |
| 2026-05-05 18:18 | 34.61499 | -119.82216 | 26332 ft | 454 kts | 315° |
| 2026-05-05 18:18 | 34.63548 | -119.85140 | 26643 ft | 456 kts | 315° |
| 2026-05-05 18:18 | 34.65601 | -119.88071 | 26863 ft | 460 kts | 315° |
| 2026-05-05 18:18 | 34.67674 | -119.91035 | 27099 ft | 463 kts | 315° |
| 2026-05-05 18:19 | 34.69784 | -119.94054 | 27365 ft | 465 kts | 316° |
| 2026-05-05 18:19 | 34.71861 | -119.97028 | 27626 ft | 467 kts | 316° |
| 2026-05-05 18:19 | 34.73963 | -120.00041 | 27950 ft | 468 kts | 316° |
| 2026-05-05 18:19 | 34.76067 | -120.03059 | 28220 ft | 470 kts | 316° |
| 2026-05-05 18:20 | 34.78202 | -120.06123 | 28423 ft | 474 kts | 316° |
| 2026-05-05 18:20 | 34.80327 | -120.09177 | 28675 ft | 476 kts | 316° |
| 2026-05-05 18:20 | 34.82451 | -120.12232 | 28963 ft | 477 kts | 316° |
| 2026-05-05 18:20 | 34.84607 | -120.15336 | 29261 ft | 479 kts | 317° |
| 2026-05-05 18:21 | 34.86727 | -120.18391 | 29558 ft | 480 kts | 317° |
| 2026-05-05 18:21 | 34.89612 | -120.22553 | 30009 ft | 479 kts | 317° |
| 2026-05-05 18:21 | 34.91025 | -120.24594 | 30247 ft | 479 kts | 317° |
| 2026-05-05 18:21 | 34.93167 | -120.27689 | 30545 ft | 479 kts | 317° |
| 2026-05-05 18:22 | 34.95304 | -120.30778 | 30814 ft | 480 kts | 317° |
| 2026-05-05 18:22 | 34.97459 | -120.33897 | 31096 ft | 479 kts | 317° |
| 2026-05-05 18:22 | 34.99603 | -120.37004 | 31418 ft | 478 kts | 317° |
| 2026-05-05 18:22 | 35.01717 | -120.40070 | 31745 ft | 476 kts | 317° |
| 2026-05-05 18:23 | 35.03872 | -120.43196 | 31976 ft | 477 kts | 317° |
| 2026-05-05 18:23 | 35.08134 | -120.49387 | 32034 ft | 481 kts | 317° |
| 2026-05-05 18:24 | 35.12422 | -120.55631 | 32059 ft | 478 kts | 317° |
| 2026-05-05 18:24 | 35.16695 | -120.61861 | 32056 ft | 479 kts | 317° |
| 2026-05-05 18:25 | 35.20956 | -120.68087 | 32054 ft | 479 kts | 316° |
| 2026-05-05 18:25 | 35.25232 | -120.74343 | 32054 ft | 480 kts | 316° |
| 2026-05-05 18:26 | 35.29496 | -120.80595 | 32054 ft | 480 kts | 317° |
| 2026-05-05 18:26 | 35.33748 | -120.86842 | 32050 ft | 480 kts | 317° |
| 2026-05-05 18:27 | 35.38026 | -120.93135 | 32050 ft | 483 kts | 317° |
| 2026-05-05 18:27 | 35.42297 | -120.99430 | 32047 ft | 482 kts | 316° |
| 2026-05-05 18:28 | 35.48689 | -121.08875 | 32044 ft | 481 kts | 317° |
| 2026-05-05 18:28 | 35.53020 | -121.15112 | 32048 ft | 479 kts | 318° |
| 2026-05-05 18:29 | 35.57370 | -121.21359 | 32045 ft | 482 kts | 318° |
| 2026-05-05 18:29 | 35.61704 | -121.27605 | 32046 ft | 482 kts | 318° |
| 2026-05-05 18:30 | 35.66059 | -121.33892 | 32042 ft | 483 kts | 318° |
| 2026-05-05 18:30 | 35.70389 | -121.40160 | 32050 ft | 482 kts | 318° |
| 2026-05-05 18:31 | 35.74710 | -121.46425 | 32043 ft | 483 kts | 318° |
| 2026-05-05 18:31 | 35.79068 | -121.52756 | 32042 ft | 483 kts | 318° |
| 2026-05-05 18:32 | 35.83401 | -121.59062 | 32048 ft | 485 kts | 318° |
| 2026-05-05 18:32 | 35.87760 | -121.65419 | 32047 ft | 485 kts | 317° |
| 2026-05-05 18:33 | 35.92093 | -121.71750 | 32040 ft | 487 kts | 317° |
| 2026-05-05 18:33 | 35.96440 | -121.78114 | 32037 ft | 485 kts | 317° |
| 2026-05-05 18:34 | 36.01247 | -121.83778 | 32037 ft | 473 kts | 332° |
| 2026-05-05 18:34 | 36.06907 | -121.87683 | 32034 ft | 465 kts | 340° |
| 2026-05-05 18:35 | 36.12683 | -121.91273 | 32051 ft | 462 kts | 340° |
| 2026-05-05 18:35 | 36.18402 | -121.94840 | 32048 ft | 462 kts | 340° |
| 2026-05-05 18:36 | 36.24151 | -121.98434 | 32055 ft | 466 kts | 340° |
| 2026-05-05 18:36 | 36.29921 | -122.02055 | 32052 ft | 463 kts | 340° |
| 2026-05-05 18:37 | 36.35630 | -122.05643 | 32058 ft | 462 kts | 340° |
| 2026-05-05 18:37 | 36.41383 | -122.09264 | 32058 ft | 466 kts | 340° |
| 2026-05-05 18:38 | 36.47162 | -122.12911 | 32057 ft | 463 kts | 340° |
| 2026-05-05 18:38 | 36.52902 | -122.16537 | 32053 ft | 465 kts | 340° |
| 2026-05-05 18:39 | 36.58658 | -122.20181 | 32058 ft | 464 kts | 340° |
| 2026-05-05 18:39 | 36.64422 | -122.23835 | 32060 ft | 467 kts | 340° |
| 2026-05-05 18:40 | 36.70173 | -122.27488 | 32057 ft | 466 kts | 340° |
| 2026-05-05 18:40 | 36.75934 | -122.31154 | 32052 ft | 465 kts | 340° |
| 2026-05-05 18:41 | 36.81728 | -122.34844 | 32050 ft | 468 kts | 340° |
| 2026-05-05 18:41 | 36.87500 | -122.38532 | 32047 ft | 466 kts | 340° |
| 2026-05-05 18:42 | 36.93276 | -122.42223 | 32052 ft | 470 kts | 340° |
| 2026-05-05 18:42 | 36.99112 | -122.45963 | 32061 ft | 468 kts | 340° |
| 2026-05-05 18:43 | 37.04894 | -122.49673 | 32052 ft | 469 kts | 341° |
| 2026-05-05 18:43 | 37.10705 | -122.53407 | 32056 ft | 470 kts | 341° |
| 2026-05-05 18:44 | 37.16457 | -122.57114 | 32067 ft | 466 kts | 341° |
| 2026-05-05 18:44 | 37.22258 | -122.60872 | 32060 ft | 472 kts | 338° |
| 2026-05-05 18:45 | 37.25011 | -122.63163 | 32074 ft | 483 kts | 330° |
| 2026-05-05 18:45 | 37.27491 | -122.66014 | 32059 ft | 489 kts | 320° |
| 2026-05-05 18:45 | 37.31374 | -122.73211 | 32056 ft | 513 kts | 302° |
| 2026-05-05 18:46 | 37.33474 | -122.81843 | 32065 ft | 529 kts | 288° |
| 2026-05-05 18:46 | 37.35028 | -122.90894 | 32060 ft | 529 kts | 288° |
| 2026-05-05 18:47 | 37.36596 | -122.99924 | 32062 ft | 532 kts | 288° |
| 2026-05-05 18:47 | 37.38177 | -123.08965 | 32063 ft | 530 kts | 288° |
| 2026-05-05 18:48 | 37.39762 | -123.18010 | 32064 ft | 530 kts | 289° |
| 2026-05-05 18:48 | 37.41328 | -123.26959 | 32067 ft | 528 kts | 289° |
| 2026-05-05 18:49 | 37.42910 | -123.36008 | 32065 ft | 531 kts | 288° |
| 2026-05-05 18:49 | 37.44484 | -123.45056 | 32066 ft | 529 kts | 288° |
| 2026-05-05 18:50 | 37.46048 | -123.54078 | 32066 ft | 529 kts | 288° |
| 2026-05-05 18:50 | 37.47602 | -123.63087 | 32065 ft | 530 kts | 288° |
| 2026-05-05 18:51 | 37.49159 | -123.72154 | 32057 ft | 529 kts | 288° |
| 2026-05-05 18:51 | 37.50697 | -123.81145 | 32057 ft | 531 kts | 288° |
| 2026-05-05 18:52 | 37.52252 | -123.90284 | 32056 ft | 531 kts | 288° |
| 2026-05-05 18:52 | 37.53773 | -123.99276 | 32058 ft | 529 kts | 288° |
| 2026-05-05 18:53 | 37.55299 | -124.08330 | 32059 ft | 531 kts | 287° |
| 2026-05-05 18:53 | 37.56820 | -124.17406 | 32060 ft | 531 kts | 288° |
| 2026-05-05 18:54 | 37.58340 | -124.26514 | 32064 ft | 531 kts | 287° |
| 2026-05-05 18:54 | 37.59838 | -124.35541 | 32064 ft | 531 kts | 287° |
| 2026-05-05 18:55 | 37.61341 | -124.44646 | 32068 ft | 530 kts | 287° |
| 2026-05-05 18:55 | 37.62836 | -124.53743 | 32073 ft | 530 kts | 287° |
| 2026-05-05 18:56 | 37.64320 | -124.62820 | 32076 ft | 532 kts | 287° |
| 2026-05-05 18:56 | 37.65797 | -124.71909 | 32064 ft | 528 kts | 287° |
| 2026-05-05 18:57 | 37.67269 | -124.80999 | 32065 ft | 532 kts | 287° |
| 2026-05-05 18:57 | 37.68735 | -124.90110 | 32067 ft | 530 kts | 286° |
| 2026-05-05 18:58 | 37.70187 | -124.99173 | 32065 ft | 531 kts | 286° |
| 2026-05-05 18:58 | 37.71639 | -125.08294 | 32072 ft | 529 kts | 286° |
| 2026-05-05 18:59 | 37.73079 | -125.17378 | 32070 ft | 531 kts | 286° |
| 2026-05-05 18:59 | 37.74509 | -125.26452 | 32077 ft | 528 kts | 286° |
| 2026-05-05 19:00 | 37.75939 | -125.35562 | 32088 ft | 531 kts | 286° |
| 2026-05-05 19:00 | 37.77357 | -125.44653 | 32085 ft | 530 kts | 286° |
| 2026-05-05 19:01 | 37.78764 | -125.53719 | 32091 ft | 529 kts | 286° |
| 2026-05-05 19:01 | 37.80170 | -125.62832 | 32099 ft | 529 kts | 286° |
| 2026-05-05 19:02 | 37.81568 | -125.71938 | 32093 ft | 529 kts | 285° |
| 2026-05-05 19:02 | 37.83156 | -125.80997 | 32097 ft | 525 kts | 293° |
| 2026-05-05 19:03 | 37.86271 | -125.89125 | 32102 ft | 513 kts | 310° |
| 2026-05-05 19:03 | 37.90380 | -125.96492 | 32106 ft | 509 kts | 311° |
| 2026-05-05 19:04 | 37.94445 | -126.03767 | 32108 ft | 508 kts | 311° |
| 2026-05-05 19:04 | 37.98477 | -126.11047 | 32107 ft | 510 kts | 311° |
| 2026-05-05 19:05 | 38.02542 | -126.18433 | 32107 ft | 510 kts | 310° |
| 2026-05-05 19:05 | 38.06587 | -126.25817 | 32107 ft | 509 kts | 310° |
| 2026-05-05 19:06 | 38.10585 | -126.33140 | 32110 ft | 510 kts | 310° |
| 2026-05-05 19:06 | 38.14622 | -126.40553 | 32117 ft | 509 kts | 310° |
| 2026-05-05 19:07 | 38.18607 | -126.47894 | 32118 ft | 507 kts | 310° |
| 2026-05-05 19:07 | 38.22607 | -126.55275 | 32115 ft | 510 kts | 310° |
| 2026-05-05 19:08 | 38.26600 | -126.62666 | 32116 ft | 507 kts | 310° |
| 2026-05-05 19:08 | 38.30588 | -126.70060 | 32109 ft | 509 kts | 309° |
| 2026-05-05 19:09 | 38.34595 | -126.77510 | 32106 ft | 508 kts | 309° |
| 2026-05-05 19:09 | 38.38559 | -126.84895 | 32108 ft | 509 kts | 309° |
| 2026-05-05 19:10 | 38.42534 | -126.92319 | 32108 ft | 508 kts | 309° |
| 2026-05-05 19:10 | 38.46495 | -126.99731 | 32110 ft | 509 kts | 309° |
| 2026-05-05 19:11 | 38.50485 | -127.07197 | 32111 ft | 507 kts | 309° |
| 2026-05-05 19:11 | 38.54445 | -127.14616 | 32115 ft | 509 kts | 309° |
| 2026-05-05 19:12 | 38.58405 | -127.22053 | 32116 ft | 507 kts | 309° |
| 2026-05-05 19:12 | 38.62369 | -127.29513 | 32118 ft | 508 kts | 309° |
| 2026-05-05 19:13 | 38.66318 | -127.36964 | 32124 ft | 507 kts | 309° |
| 2026-05-05 19:13 | 38.70246 | -127.44394 | 32120 ft | 507 kts | 309° |
| 2026-05-05 19:14 | 38.74191 | -127.51871 | 32121 ft | 507 kts | 309° |
| 2026-05-05 19:14 | 38.78119 | -127.59335 | 32126 ft | 507 kts | 309° |
| 2026-05-05 19:15 | 38.82041 | -127.66803 | 32123 ft | 506 kts | 308° |
| 2026-05-05 19:15 | 38.85974 | -127.74310 | 32119 ft | 507 kts | 308° |
| 2026-05-05 19:16 | 38.89882 | -127.81787 | 32128 ft | 507 kts | 308° |
| 2026-05-05 19:16 | 38.93780 | -127.89263 | 32124 ft | 507 kts | 308° |
| 2026-05-05 19:17 | 38.97693 | -127.96783 | 32129 ft | 506 kts | 308° |
| 2026-05-05 19:17 | 39.01590 | -128.04291 | 32127 ft | 506 kts | 308° |
| 2026-05-05 19:18 | 39.05480 | -128.11803 | 32125 ft | 505 kts | 307° |
| 2026-05-05 19:18 | 39.09349 | -128.19292 | 32131 ft | 507 kts | 307° |
| 2026-05-05 19:19 | 39.13242 | -128.26845 | 32139 ft | 506 kts | 307° |
| 2026-05-05 19:19 | 39.17108 | -128.34364 | 32141 ft | 506 kts | 307° |
| 2026-05-05 19:20 | 39.20964 | -128.41881 | 32141 ft | 505 kts | 307° |
| 2026-05-05 19:20 | 39.24843 | -128.49460 | 32139 ft | 505 kts | 307° |
| 2026-05-05 19:21 | 39.28700 | -128.57013 | 32147 ft | 506 kts | 307° |
| 2026-05-05 19:21 | 39.32552 | -128.64577 | 32142 ft | 504 kts | 307° |
| 2026-05-05 19:22 | 39.36376 | -128.72101 | 32142 ft | 506 kts | 306° |
| 2026-05-05 19:22 | 39.40229 | -128.79701 | 32144 ft | 506 kts | 306° |
| 2026-05-05 19:23 | 39.44078 | -128.87314 | 32145 ft | 506 kts | 306° |
| 2026-05-05 19:23 | 39.47906 | -128.94900 | 32151 ft | 505 kts | 306° |
| 2026-05-05 19:24 | 39.51727 | -129.02492 | 32148 ft | 505 kts | 306° |
| 2026-05-05 19:24 | 39.55543 | -129.10091 | 32153 ft | 505 kts | 306° |
| 2026-05-05 19:25 | 39.59362 | -129.17714 | 32154 ft | 506 kts | 306° |
| 2026-05-05 19:25 | 39.63172 | -129.25339 | 32155 ft | 505 kts | 306° |
| 2026-05-05 19:26 | 39.66996 | -129.33009 | 32155 ft | 506 kts | 306° |
| 2026-05-05 19:26 | 39.70779 | -129.40616 | 32158 ft | 506 kts | 306° |
| 2026-05-05 19:27 | 39.74581 | -129.48279 | 32155 ft | 505 kts | 305° |
| 2026-05-05 19:27 | 39.78394 | -129.55983 | 32157 ft | 507 kts | 305° |
| 2026-05-05 19:28 | 39.82169 | -129.63631 | 32157 ft | 506 kts | 305° |
| 2026-05-05 19:28 | 39.85950 | -129.71307 | 32151 ft | 506 kts | 304° |
| 2026-05-05 19:29 | 39.89750 | -129.79042 | 32153 ft | 507 kts | 304° |
| 2026-05-05 19:29 | 39.93534 | -129.86763 | 32151 ft | 506 kts | 304° |
| 2026-05-05 19:30 | 39.97290 | -129.94446 | 32152 ft | 506 kts | 304° |
| 2026-05-05 19:30 | 40.01443 | -130.01804 | 32156 ft | 502 kts | 316° |
| 2026-05-05 19:31 | 40.06519 | -130.07985 | 32152 ft | 502 kts | 320° |
| 2026-05-05 19:31 | 40.11637 | -130.14104 | 32155 ft | 501 kts | 319° |
| 2026-05-05 19:32 | 40.16746 | -130.20253 | 32161 ft | 501 kts | 319° |
| 2026-05-05 19:32 | 40.21870 | -130.26450 | 32158 ft | 501 kts | 319° |
| 2026-05-05 19:33 | 40.26967 | -130.32632 | 32162 ft | 502 kts | 319° |
| 2026-05-05 19:33 | 40.32066 | -130.38837 | 32169 ft | 503 kts | 319° |
| 2026-05-05 19:34 | 40.37159 | -130.45050 | 32176 ft | 502 kts | 319° |
| 2026-05-05 19:35 | 40.44812 | -130.54413 | 32173 ft | 502 kts | 319° |
| 2026-05-05 19:35 | 40.49925 | -130.60686 | 32183 ft | 503 kts | 318° |
| 2026-05-05 19:36 | 40.55019 | -130.66951 | 32176 ft | 503 kts | 317° |
| 2026-05-05 19:36 | 40.60104 | -130.73218 | 32179 ft | 502 kts | 317° |
| 2026-05-05 19:37 | 40.65161 | -130.79465 | 32183 ft | 502 kts | 317° |
| 2026-05-05 19:37 | 40.70244 | -130.85756 | 32182 ft | 503 kts | 317° |
| 2026-05-05 19:38 | 40.75322 | -130.92056 | 32175 ft | 503 kts | 317° |
| 2026-05-05 19:38 | 40.80396 | -130.98364 | 32175 ft | 502 kts | 317° |
| 2026-05-05 19:39 | 40.85473 | -131.04692 | 32177 ft | 503 kts | 317° |
| 2026-05-05 19:39 | 40.90538 | -131.11017 | 32181 ft | 503 kts | 317° |
| 2026-05-05 19:40 | 40.95616 | -131.17374 | 32177 ft | 502 kts | 317° |
| 2026-05-05 19:40 | 41.00643 | -131.23679 | 32179 ft | 503 kts | 317° |
| 2026-05-05 19:41 | 41.05714 | -131.30054 | 32184 ft | 502 kts | 317° |
| 2026-05-05 19:41 | 41.10780 | -131.36438 | 32186 ft | 502 kts | 317° |
| 2026-05-05 19:42 | 41.15802 | -131.42780 | 32189 ft | 503 kts | 316° |
| 2026-05-05 19:42 | 41.20860 | -131.49182 | 32188 ft | 503 kts | 316° |
| 2026-05-05 19:43 | 41.25929 | -131.55611 | 32195 ft | 503 kts | 316° |
| 2026-05-05 19:43 | 41.30952 | -131.61998 | 32195 ft | 503 kts | 316° |
| 2026-05-05 19:44 | 41.36017 | -131.68451 | 32193 ft | 503 kts | 316° |
| 2026-05-05 19:44 | 41.41058 | -131.74889 | 32194 ft | 504 kts | 316° |
| 2026-05-05 19:45 | 41.46069 | -131.81303 | 32200 ft | 503 kts | 316° |
| 2026-05-05 19:45 | 41.51136 | -131.87804 | 32200 ft | 503 kts | 316° |
| 2026-05-05 19:46 | 41.56162 | -131.94266 | 32202 ft | 503 kts | 315° |
| 2026-05-05 19:46 | 41.61185 | -132.00740 | 32199 ft | 503 kts | 315° |
| 2026-05-05 19:47 | 41.66193 | -132.07210 | 32203 ft | 504 kts | 315° |
| 2026-05-05 19:47 | 41.71236 | -132.13737 | 32203 ft | 504 kts | 315° |
| 2026-05-05 19:48 | 41.76243 | -132.20236 | 32202 ft | 504 kts | 315° |
| 2026-05-05 19:48 | 41.81251 | -132.26750 | 32210 ft | 505 kts | 315° |
| 2026-05-05 19:49 | 41.86282 | -132.33308 | 32215 ft | 504 kts | 315° |
| 2026-05-05 19:49 | 41.91308 | -132.39876 | 32217 ft | 505 kts | 315° |
| 2026-05-05 19:50 | 41.96321 | -132.46440 | 32217 ft | 503 kts | 315° |
| 2026-05-05 19:50 | 42.01305 | -132.52983 | 32216 ft | 504 kts | 315° |
| 2026-05-05 19:51 | 42.06289 | -132.59540 | 32216 ft | 505 kts | 315° |
| 2026-05-05 19:51 | 42.11288 | -132.66135 | 32208 ft | 505 kts | 314° |
| 2026-05-05 19:52 | 42.16295 | -132.72752 | 32205 ft | 504 kts | 314° |
| 2026-05-05 19:52 | 42.21302 | -132.79387 | 32206 ft | 504 kts | 314° |
| 2026-05-05 19:53 | 42.26266 | -132.85980 | 32209 ft | 503 kts | 314° |
| 2026-05-05 19:53 | 42.31238 | -132.92600 | 32212 ft | 504 kts | 314° |
| 2026-05-05 19:54 | 42.36193 | -132.99211 | 32214 ft | 504 kts | 314° |
| 2026-05-05 19:54 | 42.41186 | -133.05888 | 32221 ft | 505 kts | 313° |
| 2026-05-05 19:55 | 42.46149 | -133.12543 | 32226 ft | 505 kts | 313° |
| 2026-05-05 19:55 | 42.51143 | -133.19253 | 32230 ft | 505 kts | 313° |
| 2026-05-05 19:56 | 42.56112 | -133.25948 | 32236 ft | 505 kts | 313° |
| 2026-05-05 19:56 | 42.61077 | -133.32651 | 32235 ft | 505 kts | 313° |
| 2026-05-05 19:57 | 42.66020 | -133.39340 | 32236 ft | 505 kts | 313° |
| 2026-05-05 19:57 | 42.70985 | -133.46077 | 32237 ft | 505 kts | 313° |
| 2026-05-05 19:58 | 42.75946 | -133.52823 | 32236 ft | 506 kts | 313° |
| 2026-05-05 19:58 | 42.80890 | -133.59564 | 32238 ft | 506 kts | 313° |
| 2026-05-05 19:59 | 42.85867 | -133.66365 | 32238 ft | 505 kts | 312° |
| 2026-05-05 19:59 | 42.90792 | -133.73111 | 32244 ft | 506 kts | 312° |
| 2026-05-05 20:00 | 42.95752 | -133.79921 | 32253 ft | 506 kts | 312° |
| 2026-05-05 20:00 | 43.00691 | -133.86720 | 32256 ft | 506 kts | 312° |
| 2026-05-05 20:01 | 43.05643 | -133.93553 | 32258 ft | 506 kts | 312° |
| 2026-05-05 20:01 | 43.10579 | -134.00380 | 32263 ft | 506 kts | 311° |
| 2026-05-05 20:02 | 43.15494 | -134.07194 | 32253 ft | 505 kts | 311° |
| 2026-05-05 20:02 | 43.20397 | -134.14009 | 32259 ft | 506 kts | 311° |
| 2026-05-05 20:03 | 43.25347 | -134.20906 | 32260 ft | 507 kts | 311° |
| 2026-05-05 20:03 | 43.30267 | -134.27777 | 32259 ft | 507 kts | 311° |
| 2026-05-05 20:04 | 43.35203 | -134.34689 | 32260 ft | 507 kts | 311° |
| 2026-05-05 20:04 | 43.40123 | -134.41595 | 32263 ft | 508 kts | 311° |
| 2026-05-05 20:05 | 43.45046 | -134.48521 | 32267 ft | 507 kts | 311° |
| 2026-05-05 20:05 | 43.49934 | -134.55417 | 32268 ft | 507 kts | 311° |
| 2026-05-05 20:06 | 43.54852 | -134.62372 | 32269 ft | 507 kts | 311° |
| 2026-05-05 20:06 | 43.59761 | -134.69330 | 32273 ft | 506 kts | 310° |
| 2026-05-05 20:07 | 43.64661 | -134.76294 | 32273 ft | 507 kts | 310° |
| 2026-05-05 20:07 | 43.69570 | -134.83287 | 32277 ft | 508 kts | 310° |
| 2026-05-05 20:08 | 43.74437 | -134.90239 | 32277 ft | 508 kts | 310° |
| 2026-05-05 20:08 | 43.79335 | -134.97252 | 32277 ft | 509 kts | 310° |
| 2026-05-05 20:09 | 43.84251 | -135.04309 | 32280 ft | 508 kts | 310° |
| 2026-05-05 20:09 | 43.89140 | -135.11343 | 32284 ft | 508 kts | 310° |
| 2026-05-05 20:10 | 43.94024 | -135.18390 | 32287 ft | 507 kts | 310° |
| 2026-05-05 20:10 | 43.98895 | -135.25436 | 32287 ft | 507 kts | 310° |
| 2026-05-05 20:11 | 44.03733 | -135.32451 | 32289 ft | 506 kts | 310° |
| 2026-05-05 20:11 | 44.08581 | -135.39499 | 32288 ft | 507 kts | 310° |
| 2026-05-05 20:12 | 44.13432 | -135.46568 | 32280 ft | 505 kts | 310° |
| 2026-05-05 20:12 | 44.18299 | -135.53679 | 32283 ft | 506 kts | 310° |
| 2026-05-05 20:13 | 44.23110 | -135.60725 | 32283 ft | 505 kts | 310° |
| 2026-05-05 20:13 | 44.27950 | -135.67833 | 32288 ft | 505 kts | 309° |
| 2026-05-05 20:14 | 44.32769 | -135.74930 | 32292 ft | 506 kts | 309° |
| 2026-05-05 20:14 | 44.37578 | -135.82028 | 32294 ft | 504 kts | 309° |
| 2026-05-05 20:15 | 44.42371 | -135.89121 | 32294 ft | 504 kts | 309° |
| 2026-05-05 20:15 | 44.47156 | -135.96220 | 32296 ft | 503 kts | 309° |
| 2026-05-05 20:16 | 44.51957 | -136.03361 | 32297 ft | 504 kts | 309° |
| 2026-05-05 20:16 | 44.56730 | -136.10478 | 32298 ft | 504 kts | 309° |
| 2026-05-05 20:17 | 44.61531 | -136.17658 | 32302 ft | 504 kts | 309° |
| 2026-05-05 20:17 | 44.66309 | -136.24818 | 32302 ft | 505 kts | 309° |
| 2026-05-05 20:18 | 44.71075 | -136.31982 | 32305 ft | 504 kts | 309° |
| 2026-05-05 20:18 | 44.75839 | -136.39160 | 32307 ft | 505 kts | 309° |
| 2026-05-05 20:19 | 44.80624 | -136.46390 | 32308 ft | 505 kts | 308° |
| 2026-05-05 20:19 | 44.85397 | -136.53619 | 32309 ft | 505 kts | 308° |
| 2026-05-05 20:20 | 44.90140 | -136.60820 | 32310 ft | 505 kts | 308° |
| 2026-05-05 20:20 | 44.94901 | -136.68071 | 32320 ft | 504 kts | 308° |
| 2026-05-05 20:21 | 44.99646 | -136.75313 | 32319 ft | 504 kts | 308° |
| 2026-05-05 20:21 | 45.04419 | -136.82619 | 32320 ft | 504 kts | 307° |
| 2026-05-05 20:22 | 45.09148 | -136.89876 | 32323 ft | 505 kts | 307° |
| 2026-05-05 20:22 | 45.13868 | -136.97139 | 32311 ft | 505 kts | 308° |
| 2026-05-05 20:23 | 45.18621 | -137.04472 | 32314 ft | 506 kts | 308° |
| 2026-05-05 20:23 | 45.23366 | -137.11812 | 32314 ft | 505 kts | 307° |
| 2026-05-05 20:24 | 45.28079 | -137.19121 | 32316 ft | 506 kts | 307° |
| 2026-05-05 20:24 | 45.32809 | -137.26477 | 32321 ft | 506 kts | 307° |
| 2026-05-05 20:25 | 45.37526 | -137.33830 | 32321 ft | 505 kts | 307° |
| 2026-05-05 20:25 | 45.42268 | -137.41244 | 32322 ft | 506 kts | 307° |
| 2026-05-05 20:26 | 45.46982 | -137.48634 | 32324 ft | 507 kts | 307° |
| 2026-05-05 20:26 | 45.51717 | -137.56076 | 32330 ft | 506 kts | 307° |
| 2026-05-05 20:27 | 45.56425 | -137.63498 | 32332 ft | 507 kts | 307° |
| 2026-05-05 20:27 | 45.61136 | -137.70943 | 32337 ft | 506 kts | 307° |
| 2026-05-05 20:28 | 45.65840 | -137.78398 | 32339 ft | 508 kts | 307° |
| 2026-05-05 20:28 | 45.70516 | -137.85826 | 32340 ft | 506 kts | 307° |
| 2026-05-05 20:29 | 45.75244 | -137.93361 | 32339 ft | 508 kts | 307° |
| 2026-05-05 20:29 | 45.79908 | -138.00810 | 32342 ft | 507 kts | 307° |
| 2026-05-05 20:30 | 45.84621 | -138.08360 | 32344 ft | 507 kts | 307° |
| 2026-05-05 20:30 | 45.89285 | -138.15852 | 32346 ft | 508 kts | 307° |
| 2026-05-05 20:31 | 45.93985 | -138.23425 | 32344 ft | 507 kts | 307° |
| 2026-05-05 20:31 | 45.98660 | -138.30975 | 32347 ft | 510 kts | 307° |
| 2026-05-05 20:32 | 46.03365 | -138.38596 | 32355 ft | 510 kts | 307° |
| 2026-05-05 20:32 | 46.08053 | -138.46210 | 32348 ft | 510 kts | 307° |
| 2026-05-05 20:33 | 46.12762 | -138.53880 | 32333 ft | 511 kts | 306° |
| 2026-05-05 20:33 | 46.17425 | -138.61494 | 32331 ft | 509 kts | 306° |
| 2026-05-05 20:34 | 46.22091 | -138.69138 | 32335 ft | 510 kts | 306° |
| 2026-05-05 20:34 | 46.26758 | -138.76802 | 32331 ft | 508 kts | 306° |
| 2026-05-05 20:35 | 46.31405 | -138.84456 | 32328 ft | 509 kts | 306° |
| 2026-05-05 20:35 | 46.36040 | -138.92113 | 32331 ft | 511 kts | 306° |
| 2026-05-05 20:36 | 46.40712 | -138.99850 | 32340 ft | 511 kts | 306° |
| 2026-05-05 20:36 | 46.45340 | -139.07538 | 32341 ft | 509 kts | 306° |
| 2026-05-05 20:37 | 46.50010 | -139.15317 | 32338 ft | 511 kts | 306° |
| 2026-05-05 20:37 | 46.54656 | -139.23076 | 32338 ft | 511 kts | 306° |
| 2026-05-05 20:38 | 46.59296 | -139.30849 | 32337 ft | 510 kts | 306° |
| 2026-05-05 20:38 | 46.63910 | -139.38600 | 32339 ft | 510 kts | 306° |
| 2026-05-05 20:39 | 46.68550 | -139.46419 | 32339 ft | 510 kts | 306° |
| 2026-05-05 20:39 | 46.73186 | -139.54251 | 32339 ft | 511 kts | 306° |
| 2026-05-05 20:40 | 46.77805 | -139.62079 | 32340 ft | 512 kts | 306° |
| 2026-05-05 20:40 | 46.82422 | -139.69922 | 32342 ft | 510 kts | 305° |
| 2026-05-05 20:41 | 46.87024 | -139.77765 | 32344 ft | 511 kts | 305° |
| 2026-05-05 20:41 | 46.91618 | -139.85617 | 32345 ft | 512 kts | 305° |
| 2026-05-05 20:42 | 46.96224 | -139.93512 | 32345 ft | 511 kts | 305° |
| 2026-05-05 20:42 | 47.00649 | -140.01602 | 32351 ft | 508 kts | 300° |
| 2026-05-05 20:43 | 47.04718 | -140.09996 | 32346 ft | 506 kts | 299° |
| 2026-05-05 20:43 | 47.08758 | -140.18417 | 32348 ft | 507 kts | 299° |
| 2026-05-05 20:44 | 47.12772 | -140.26836 | 32338 ft | 508 kts | 299° |
| 2026-05-05 20:44 | 47.16793 | -140.35306 | 32338 ft | 507 kts | 299° |
| 2026-05-05 20:45 | 47.22828 | -140.48085 | 32343 ft | 507 kts | 299° |
| 2026-05-05 20:45 | 47.26823 | -140.56581 | 32346 ft | 508 kts | 299° |
| 2026-05-05 20:46 | 47.30810 | -140.65091 | 32343 ft | 508 kts | 299° |
| 2026-05-05 20:46 | 47.34788 | -140.73604 | 32348 ft | 506 kts | 298° |
| 2026-05-05 20:47 | 47.38777 | -140.82169 | 32352 ft | 507 kts | 298° |
| 2026-05-05 20:47 | 47.42744 | -140.90715 | 32354 ft | 505 kts | 298° |
| 2026-05-05 20:48 | 47.46694 | -140.99251 | 32346 ft | 507 kts | 298° |
| 2026-05-05 20:48 | 47.50662 | -141.07852 | 32344 ft | 506 kts | 299° |
| 2026-05-05 20:49 | 47.54599 | -141.16411 | 32337 ft | 506 kts | 298° |
| 2026-05-05 20:49 | 47.58556 | -141.25046 | 32330 ft | 508 kts | 299° |
| 2026-05-05 20:50 | 47.62477 | -141.33626 | 32333 ft | 507 kts | 298° |
| 2026-05-05 20:50 | 47.66410 | -141.42258 | 32337 ft | 506 kts | 298° |
| 2026-05-05 20:51 | 47.70322 | -141.50870 | 32339 ft | 507 kts | 298° |
| 2026-05-05 20:51 | 47.74237 | -141.59518 | 32339 ft | 505 kts | 298° |
| 2026-05-05 20:52 | 47.78158 | -141.68208 | 32340 ft | 506 kts | 298° |
| 2026-05-05 20:52 | 47.82028 | -141.76810 | 32348 ft | 505 kts | 298° |
| 2026-05-05 20:53 | 47.85926 | -141.85503 | 32347 ft | 507 kts | 298° |
| 2026-05-05 20:53 | 47.89826 | -141.94228 | 32343 ft | 507 kts | 298° |
| 2026-05-05 20:54 | 47.93719 | -142.02963 | 32347 ft | 505 kts | 298° |
| 2026-05-05 20:54 | 47.97566 | -142.11623 | 32343 ft | 504 kts | 298° |
| 2026-05-05 20:55 | 48.01418 | -142.20326 | 32349 ft | 506 kts | 298° |
| 2026-05-05 20:55 | 48.05270 | -142.29054 | 32348 ft | 504 kts | 298° |
| 2026-05-05 20:56 | 48.09129 | -142.37826 | 32347 ft | 506 kts | 298° |
| 2026-05-05 20:56 | 48.12957 | -142.46558 | 32332 ft | 504 kts | 298° |
| 2026-05-05 20:57 | 48.16790 | -142.55327 | 32333 ft | 505 kts | 298° |
| 2026-05-05 20:57 | 48.20611 | -142.64098 | 32332 ft | 504 kts | 298° |
| 2026-05-05 20:58 | 48.24404 | -142.72830 | 32324 ft | 502 kts | 297° |
| 2026-05-05 20:58 | 48.28212 | -142.81628 | 32330 ft | 502 kts | 297° |
| 2026-05-05 20:59 | 48.31981 | -142.90366 | 32336 ft | 502 kts | 297° |
| 2026-05-05 20:59 | 48.35757 | -142.99146 | 32333 ft | 501 kts | 297° |
| 2026-05-05 21:00 | 48.39510 | -143.07901 | 32327 ft | 501 kts | 298° |
| 2026-05-05 21:00 | 48.43263 | -143.16684 | 32333 ft | 501 kts | 297° |
| 2026-05-05 21:01 | 48.47020 | -143.25507 | 32333 ft | 502 kts | 298° |
| 2026-05-05 21:01 | 48.50775 | -143.34352 | 32333 ft | 501 kts | 298° |
| 2026-05-05 21:02 | 48.54504 | -143.43166 | 32329 ft | 502 kts | 298° |
| 2026-05-05 21:02 | 48.58228 | -143.51996 | 32324 ft | 501 kts | 297° |
| 2026-05-05 21:03 | 48.61955 | -143.60863 | 32326 ft | 501 kts | 297° |
| 2026-05-05 21:03 | 48.65680 | -143.69756 | 32325 ft | 500 kts | 296° |
| 2026-05-05 21:04 | 48.69353 | -143.78554 | 32329 ft | 501 kts | 297° |
| 2026-05-05 21:04 | 48.73056 | -143.87448 | 32329 ft | 499 kts | 296° |
| 2026-05-05 21:05 | 48.76732 | -143.96310 | 32329 ft | 500 kts | 297° |
| 2026-05-05 21:05 | 48.80412 | -144.05214 | 32328 ft | 500 kts | 297° |
| 2026-05-05 21:06 | 48.84096 | -144.14156 | 32324 ft | 500 kts | 297° |
| 2026-05-05 21:06 | 48.87758 | -144.23071 | 32330 ft | 499 kts | 297° |
| 2026-05-05 21:07 | 48.91410 | -144.31995 | 32324 ft | 498 kts | 297° |
| 2026-05-05 21:07 | 48.95041 | -144.40895 | 32318 ft | 498 kts | 297° |
| 2026-05-05 21:08 | 48.98667 | -144.49814 | 32318 ft | 496 kts | 297° |
| 2026-05-05 21:08 | 49.02266 | -144.58693 | 32323 ft | 496 kts | 297° |
| 2026-05-05 21:09 | 49.05868 | -144.67613 | 32330 ft | 496 kts | 296° |
| 2026-05-05 21:09 | 49.09459 | -144.76533 | 32328 ft | 494 kts | 296° |
| 2026-05-05 21:10 | 49.13033 | -144.85445 | 32312 ft | 494 kts | 296° |
| 2026-05-05 21:10 | 49.16611 | -144.94397 | 32306 ft | 496 kts | 296° |
| 2026-05-05 21:11 | 49.20192 | -145.03383 | 32313 ft | 495 kts | 296° |
| 2026-05-05 21:11 | 49.23734 | -145.12302 | 32295 ft | 496 kts | 296° |
| 2026-05-05 21:12 | 49.27307 | -145.21329 | 32291 ft | 493 kts | 296° |
| 2026-05-05 21:12 | 49.30827 | -145.30254 | 32296 ft | 493 kts | 296° |
| 2026-05-05 21:13 | 49.34367 | -145.39261 | 32291 ft | 491 kts | 296° |
| 2026-05-05 21:13 | 49.37870 | -145.48204 | 32291 ft | 492 kts | 296° |
| 2026-05-05 21:14 | 49.41370 | -145.57169 | 32290 ft | 492 kts | 296° |
| 2026-05-05 21:14 | 49.44863 | -145.66145 | 32291 ft | 492 kts | 295° |
| 2026-05-05 21:15 | 49.48362 | -145.75168 | 32290 ft | 492 kts | 295° |
| 2026-05-05 21:15 | 49.51821 | -145.84120 | 32287 ft | 491 kts | 295° |
| 2026-05-05 21:16 | 49.55312 | -145.93184 | 32289 ft | 492 kts | 295° |
| 2026-05-05 21:16 | 49.58758 | -146.02165 | 32291 ft | 490 kts | 295° |
| 2026-05-05 21:17 | 49.62219 | -146.11215 | 32283 ft | 492 kts | 295° |
| 2026-05-05 21:17 | 49.65672 | -146.20273 | 32281 ft | 490 kts | 295° |
| 2026-05-05 21:18 | 49.69096 | -146.29286 | 32281 ft | 489 kts | 295° |
| 2026-05-05 21:18 | 49.72510 | -146.38307 | 32273 ft | 488 kts | 295° |
| 2026-05-05 21:19 | 49.75915 | -146.47334 | 32277 ft | 488 kts | 295° |
| 2026-05-05 21:19 | 49.79328 | -146.56415 | 32275 ft | 489 kts | 295° |
| 2026-05-05 21:20 | 49.82735 | -146.65511 | 32266 ft | 490 kts | 294° |
| 2026-05-05 21:20 | 49.86119 | -146.74574 | 32271 ft | 488 kts | 294° |
| 2026-05-05 21:21 | 49.89509 | -146.83687 | 32272 ft | 489 kts | 294° |
| 2026-05-05 21:21 | 49.92863 | -146.92737 | 32270 ft | 488 kts | 294° |
| 2026-05-05 21:22 | 49.96233 | -147.01859 | 32267 ft | 487 kts | 294° |
| 2026-05-05 21:22 | 49.99566 | -147.10913 | 32259 ft | 486 kts | 294° |
| 2026-05-05 21:23 | 50.02910 | -147.20032 | 32259 ft | 485 kts | 294° |
| 2026-05-05 21:23 | 50.06232 | -147.29120 | 32260 ft | 486 kts | 294° |
| 2026-05-05 21:24 | 50.09549 | -147.38228 | 32252 ft | 485 kts | 294° |
| 2026-05-05 21:24 | 50.12848 | -147.47319 | 32237 ft | 486 kts | 294° |
| 2026-05-05 21:25 | 50.16172 | -147.56508 | 32235 ft | 486 kts | 294° |
| 2026-05-05 21:25 | 50.19470 | -147.65662 | 32236 ft | 486 kts | 294° |
| 2026-05-05 21:26 | 50.22762 | -147.74826 | 32242 ft | 485 kts | 294° |
| 2026-05-05 21:26 | 50.26015 | -147.83920 | 32234 ft | 482 kts | 294° |
| 2026-05-05 21:27 | 50.29266 | -147.93037 | 32232 ft | 483 kts | 294° |
| 2026-05-05 21:27 | 50.32514 | -148.02181 | 32221 ft | 483 kts | 294° |
| 2026-05-05 21:28 | 50.35762 | -148.11356 | 32224 ft | 482 kts | 294° |
| 2026-05-05 21:28 | 50.38979 | -148.20476 | 32227 ft | 482 kts | 294° |
| 2026-05-05 21:29 | 50.42200 | -148.29640 | 32227 ft | 481 kts | 294° |
| 2026-05-05 21:29 | 50.45416 | -148.38823 | 32229 ft | 481 kts | 294° |
| 2026-05-05 21:30 | 50.48610 | -148.47977 | 32223 ft | 481 kts | 294° |
| 2026-05-05 21:30 | 50.51812 | -148.57185 | 32229 ft | 481 kts | 294° |
| 2026-05-05 21:31 | 50.54982 | -148.66336 | 32223 ft | 479 kts | 293° |
| 2026-05-05 21:31 | 50.58144 | -148.75497 | 32225 ft | 479 kts | 293° |
| 2026-05-05 21:32 | 50.61301 | -148.84674 | 32231 ft | 478 kts | 293° |
| 2026-05-05 21:32 | 50.64453 | -148.93874 | 32221 ft | 479 kts | 293° |
| 2026-05-05 21:33 | 50.67581 | -149.03035 | 32214 ft | 478 kts | 293° |
| 2026-05-05 21:33 | 50.70714 | -149.12244 | 32209 ft | 477 kts | 293° |
| 2026-05-05 21:34 | 50.73839 | -149.21464 | 32211 ft | 477 kts | 293° |
| 2026-05-05 21:34 | 50.76965 | -149.30721 | 32209 ft | 477 kts | 293° |
| 2026-05-05 21:35 | 50.80061 | -149.39922 | 32209 ft | 477 kts | 293° |
| 2026-05-05 21:35 | 50.83164 | -149.49176 | 32203 ft | 476 kts | 293° |
| 2026-05-05 21:36 | 50.86248 | -149.58409 | 32199 ft | 476 kts | 293° |
| 2026-05-05 21:36 | 50.89319 | -149.67636 | 32210 ft | 476 kts | 292° |
| 2026-05-05 21:37 | 50.92373 | -149.76849 | 32210 ft | 475 kts | 292° |
| 2026-05-05 21:37 | 50.95427 | -149.86095 | 32202 ft | 475 kts | 292° |
| 2026-05-05 21:38 | 50.98472 | -149.95346 | 32200 ft | 475 kts | 292° |
| 2026-05-05 21:38 | 51.01581 | -150.04549 | 32200 ft | 478 kts | 295° |
| 2026-05-05 21:39 | 51.04926 | -150.13643 | 32186 ft | 476 kts | 295° |
| 2026-05-05 21:39 | 51.08234 | -150.22702 | 32199 ft | 476 kts | 295° |
| 2026-05-05 21:40 | 51.11536 | -150.31799 | 32186 ft | 476 kts | 295° |
| 2026-05-05 21:40 | 51.14811 | -150.40872 | 32185 ft | 476 kts | 296° |
| 2026-05-05 21:41 | 51.18096 | -150.50012 | 32172 ft | 475 kts | 296° |
| 2026-05-05 21:41 | 51.21345 | -150.59090 | 32175 ft | 475 kts | 296° |
| 2026-05-05 21:42 | 51.24597 | -150.68210 | 32178 ft | 475 kts | 295° |
| 2026-05-05 21:42 | 51.27846 | -150.77356 | 32168 ft | 474 kts | 295° |
| 2026-05-05 21:43 | 51.31073 | -150.86472 | 32166 ft | 474 kts | 295° |
| 2026-05-05 21:43 | 51.34306 | -150.95642 | 32160 ft | 474 kts | 295° |
| 2026-05-05 21:44 | 51.37515 | -151.04773 | 32160 ft | 474 kts | 295° |
| 2026-05-05 21:44 | 51.40727 | -151.13950 | 32158 ft | 473 kts | 295° |
| 2026-05-05 21:45 | 51.43917 | -151.23093 | 32147 ft | 472 kts | 295° |
| 2026-05-05 21:45 | 51.47110 | -151.32281 | 32146 ft | 472 kts | 295° |
| 2026-05-05 21:46 | 51.50287 | -151.41457 | 32148 ft | 472 kts | 295° |
| 2026-05-05 21:46 | 51.53456 | -151.50639 | 32148 ft | 471 kts | 295° |
| 2026-05-05 21:47 | 51.56601 | -151.59790 | 32151 ft | 472 kts | 295° |
| 2026-05-05 21:47 | 51.59753 | -151.68994 | 32156 ft | 471 kts | 294° |
| 2026-05-05 21:48 | 51.62894 | -151.78198 | 32150 ft | 470 kts | 294° |
| 2026-05-05 21:48 | 51.66022 | -151.87396 | 32142 ft | 469 kts | 294° |
| 2026-05-05 21:49 | 51.69125 | -151.96558 | 32149 ft | 469 kts | 294° |
| 2026-05-05 21:49 | 51.72242 | -152.05794 | 32141 ft | 469 kts | 294° |
| 2026-05-05 21:50 | 51.75325 | -152.14963 | 32139 ft | 468 kts | 294° |
| 2026-05-05 21:50 | 51.78412 | -152.24176 | 32135 ft | 468 kts | 294° |
| 2026-05-05 21:51 | 51.81486 | -152.33386 | 32141 ft | 468 kts | 294° |
| 2026-05-05 21:51 | 51.84552 | -152.42606 | 32134 ft | 466 kts | 294° |
| 2026-05-05 21:52 | 51.89114 | -152.56386 | 32127 ft | 467 kts | 295° |
| 2026-05-05 21:53 | 51.92171 | -152.65666 | 32118 ft | 466 kts | 294° |
| 2026-05-05 21:53 | 51.95183 | -152.74841 | 32126 ft | 466 kts | 294° |
| 2026-05-05 21:54 | 51.98215 | -152.84114 | 32125 ft | 466 kts | 294° |
| 2026-05-05 21:54 | 52.01239 | -152.93394 | 32119 ft | 465 kts | 294° |
| 2026-05-05 21:55 | 52.04226 | -153.02597 | 32114 ft | 465 kts | 294° |
| 2026-05-05 21:55 | 52.07222 | -153.11859 | 32107 ft | 464 kts | 294° |
| 2026-05-05 21:56 | 52.10205 | -153.21121 | 32110 ft | 464 kts | 294° |
| 2026-05-05 21:56 | 52.13184 | -153.30405 | 32098 ft | 465 kts | 294° |
| 2026-05-05 21:57 | 52.16167 | -153.39735 | 32097 ft | 466 kts | 294° |
| 2026-05-05 21:57 | 52.19117 | -153.48997 | 32091 ft | 465 kts | 294° |
| 2026-05-05 21:58 | 52.22084 | -153.58348 | 32094 ft | 465 kts | 294° |
| 2026-05-05 21:58 | 52.25043 | -153.67709 | 32095 ft | 464 kts | 293° |
| 2026-05-05 21:59 | 52.27974 | -153.77017 | 32092 ft | 463 kts | 293° |
| 2026-05-05 21:59 | 52.30897 | -153.86337 | 32096 ft | 464 kts | 293° |
| 2026-05-05 22:00 | 52.33809 | -153.95654 | 32085 ft | 464 kts | 293° |
| 2026-05-05 22:00 | 52.36725 | -154.05023 | 32088 ft | 465 kts | 293° |
| 2026-05-05 22:01 | 52.39646 | -154.14444 | 32082 ft | 465 kts | 293° |
| 2026-05-05 22:01 | 52.42552 | -154.23851 | 32084 ft | 464 kts | 293° |
| 2026-05-05 22:02 | 52.45446 | -154.33258 | 32080 ft | 464 kts | 293° |
| 2026-05-05 22:02 | 52.48327 | -154.42656 | 32073 ft | 464 kts | 293° |
| 2026-05-05 22:03 | 52.51217 | -154.52125 | 32072 ft | 464 kts | 293° |
| 2026-05-05 22:03 | 52.54082 | -154.61546 | 32077 ft | 464 kts | 293° |
| 2026-05-05 22:04 | 52.56945 | -154.70998 | 32077 ft | 464 kts | 292° |
| 2026-05-05 22:04 | 52.59807 | -154.80484 | 32076 ft | 464 kts | 292° |
| 2026-05-05 22:05 | 52.62643 | -154.89923 | 32077 ft | 465 kts | 292° |
| 2026-05-05 22:05 | 52.65486 | -154.99420 | 32067 ft | 464 kts | 292° |
| 2026-05-05 22:06 | 52.68328 | -155.08954 | 32066 ft | 463 kts | 292° |
| 2026-05-05 22:06 | 52.71155 | -155.18472 | 32071 ft | 463 kts | 292° |
| 2026-05-05 22:07 | 52.73959 | -155.27954 | 32061 ft | 463 kts | 292° |
| 2026-05-05 22:07 | 52.76769 | -155.37492 | 32057 ft | 464 kts | 292° |
| 2026-05-05 22:08 | 52.79573 | -155.47051 | 32061 ft | 463 kts | 292° |
| 2026-05-05 22:08 | 52.82357 | -155.56575 | 32056 ft | 463 kts | 292° |
| 2026-05-05 22:09 | 52.85153 | -155.66185 | 32058 ft | 465 kts | 292° |
| 2026-05-05 22:09 | 52.87923 | -155.75737 | 32057 ft | 463 kts | 292° |
| 2026-05-05 22:10 | 52.90684 | -155.85303 | 32056 ft | 463 kts | 292° |
| 2026-05-05 22:10 | 52.93445 | -155.94907 | 32055 ft | 463 kts | 292° |
| 2026-05-05 22:11 | 52.96195 | -156.04507 | 32055 ft | 462 kts | 292° |
| 2026-05-05 22:11 | 52.98919 | -156.14059 | 32054 ft | 463 kts | 292° |
| 2026-05-05 22:12 | 53.01664 | -156.23724 | 32046 ft | 463 kts | 292° |
| 2026-05-05 22:12 | 53.04383 | -156.33336 | 32033 ft | 462 kts | 292° |
| 2026-05-05 22:13 | 53.07107 | -156.43005 | 32038 ft | 462 kts | 292° |
| 2026-05-05 22:13 | 53.09805 | -156.52623 | 32038 ft | 462 kts | 292° |
| 2026-05-05 22:14 | 53.12500 | -156.62271 | 32038 ft | 461 kts | 292° |
| 2026-05-05 22:14 | 53.15198 | -156.71970 | 32040 ft | 462 kts | 291° |
| 2026-05-05 22:15 | 53.17876 | -156.81638 | 32046 ft | 462 kts | 291° |
| 2026-05-05 22:15 | 53.20546 | -156.91312 | 32034 ft | 462 kts | 291° |
| 2026-05-05 22:16 | 53.23198 | -157.00964 | 32027 ft | 461 kts | 291° |
| 2026-05-05 22:16 | 53.25855 | -157.10677 | 32031 ft | 461 kts | 291° |
| 2026-05-05 22:17 | 53.28498 | -157.20377 | 32031 ft | 460 kts | 291° |
| 2026-05-05 22:17 | 53.31132 | -157.30086 | 32028 ft | 460 kts | 291° |
| 2026-05-05 22:18 | 53.33763 | -157.39827 | 32020 ft | 460 kts | 291° |
| 2026-05-05 22:18 | 53.36371 | -157.49518 | 32024 ft | 461 kts | 291° |
| 2026-05-05 22:19 | 53.38994 | -157.59311 | 32022 ft | 460 kts | 291° |
| 2026-05-05 22:19 | 53.41582 | -157.69014 | 32037 ft | 461 kts | 291° |
| 2026-05-05 22:20 | 53.44183 | -157.78809 | 32023 ft | 460 kts | 291° |
| 2026-05-05 22:20 | 53.46760 | -157.88551 | 32030 ft | 459 kts | 291° |
| 2026-05-05 22:21 | 53.49340 | -157.98352 | 32025 ft | 458 kts | 291° |
| 2026-05-05 22:21 | 53.51887 | -158.08069 | 32030 ft | 460 kts | 291° |
| 2026-05-05 22:22 | 53.54462 | -158.17931 | 32037 ft | 461 kts | 291° |
| 2026-05-05 22:22 | 53.57011 | -158.27737 | 32038 ft | 460 kts | 291° |
| 2026-05-05 22:23 | 53.59554 | -158.37567 | 32036 ft | 461 kts | 291° |
| 2026-05-05 22:23 | 53.62106 | -158.47473 | 32035 ft | 461 kts | 291° |
| 2026-05-05 22:24 | 53.64642 | -158.57355 | 32028 ft | 461 kts | 291° |
| 2026-05-05 22:24 | 53.67154 | -158.67194 | 32033 ft | 460 kts | 291° |
| 2026-05-05 22:25 | 53.69663 | -158.77061 | 32037 ft | 460 kts | 291° |
| 2026-05-05 22:25 | 53.72162 | -158.86935 | 32037 ft | 459 kts | 291° |
| 2026-05-05 22:26 | 53.74661 | -158.96849 | 32043 ft | 460 kts | 291° |
| 2026-05-05 22:26 | 53.77151 | -159.06775 | 32039 ft | 460 kts | 291° |
| 2026-05-05 22:27 | 53.79618 | -159.16653 | 32041 ft | 461 kts | 291° |
| 2026-05-05 22:27 | 53.82092 | -159.26602 | 32039 ft | 461 kts | 291° |
| 2026-05-05 22:28 | 53.84568 | -159.36609 | 32036 ft | 461 kts | 291° |
| 2026-05-05 22:28 | 53.87028 | -159.46591 | 32039 ft | 462 kts | 291° |
| 2026-05-05 22:29 | 53.89479 | -159.56583 | 32039 ft | 462 kts | 291° |
| 2026-05-05 22:29 | 53.91935 | -159.66643 | 32043 ft | 462 kts | 291° |
| 2026-05-05 22:30 | 53.94374 | -159.76680 | 32046 ft | 462 kts | 291° |
| 2026-05-05 22:30 | 53.96804 | -159.86722 | 32040 ft | 463 kts | 291° |
| 2026-05-05 22:31 | 53.99221 | -159.96845 | 32036 ft | 463 kts | 288° |
| 2026-05-05 22:31 | 54.00938 | -160.07304 | 32051 ft | 462 kts | 284° |
| 2026-05-05 22:32 | 54.02505 | -160.17844 | 32053 ft | 463 kts | 284° |
| 2026-05-05 22:32 | 54.04037 | -160.28398 | 32050 ft | 463 kts | 284° |
| 2026-05-05 22:33 | 54.05563 | -160.39075 | 32053 ft | 464 kts | 284° |
| 2026-05-05 22:33 | 54.07065 | -160.49710 | 32054 ft | 464 kts | 284° |
| 2026-05-05 22:34 | 54.08553 | -160.60347 | 32054 ft | 464 kts | 284° |
| 2026-05-05 22:34 | 54.10025 | -160.70962 | 32060 ft | 465 kts | 283° |
| 2026-05-05 22:35 | 54.11495 | -160.81645 | 32062 ft | 464 kts | 283° |
| 2026-05-05 22:35 | 54.12958 | -160.92352 | 32063 ft | 465 kts | 283° |
| 2026-05-05 22:36 | 54.14407 | -161.03041 | 32065 ft | 465 kts | 283° |
| 2026-05-05 22:36 | 54.15848 | -161.13750 | 32067 ft | 465 kts | 283° |
| 2026-05-05 22:37 | 54.17282 | -161.24478 | 32070 ft | 466 kts | 283° |
| 2026-05-05 22:37 | 54.18705 | -161.35210 | 32064 ft | 465 kts | 284° |
| 2026-05-05 22:38 | 54.20115 | -161.45918 | 32065 ft | 465 kts | 283° |
| 2026-05-05 22:38 | 54.21520 | -161.56665 | 32067 ft | 465 kts | 284° |
| 2026-05-05 22:39 | 54.22907 | -161.67363 | 32069 ft | 465 kts | 283° |
| 2026-05-05 22:39 | 54.24290 | -161.78105 | 32068 ft | 465 kts | 283° |
| 2026-05-05 22:40 | 54.25674 | -161.88939 | 32064 ft | 465 kts | 283° |
| 2026-05-05 22:40 | 54.27042 | -161.99728 | 32064 ft | 467 kts | 283° |
| 2026-05-05 22:41 | 54.28404 | -162.10555 | 32069 ft | 468 kts | 283° |
| 2026-05-05 22:41 | 54.29758 | -162.21407 | 32070 ft | 467 kts | 283° |
| 2026-05-05 22:42 | 54.31101 | -162.32254 | 32075 ft | 467 kts | 284° |
| 2026-05-05 22:42 | 54.32434 | -162.43102 | 32082 ft | 468 kts | 284° |
| 2026-05-05 22:43 | 54.33757 | -162.53961 | 32086 ft | 468 kts | 284° |
| 2026-05-05 22:43 | 54.35072 | -162.64831 | 32088 ft | 469 kts | 284° |
| 2026-05-05 22:44 | 54.36385 | -162.75787 | 32095 ft | 471 kts | 283° |
| 2026-05-05 22:44 | 54.37685 | -162.86716 | 32103 ft | 472 kts | 283° |
| 2026-05-05 22:45 | 54.38979 | -162.97684 | 32103 ft | 472 kts | 284° |
| 2026-05-05 22:45 | 54.40271 | -163.08733 | 32110 ft | 473 kts | 284° |
| 2026-05-05 22:46 | 54.41548 | -163.19739 | 32114 ft | 473 kts | 284° |
| 2026-05-05 22:46 | 54.42821 | -163.30809 | 32114 ft | 473 kts | 284° |
| 2026-05-05 22:47 | 54.44072 | -163.41782 | 32114 ft | 473 kts | 284° |
| 2026-05-05 22:47 | 54.45327 | -163.52882 | 32116 ft | 474 kts | 284° |
| 2026-05-05 22:48 | 54.46565 | -163.63930 | 32116 ft | 474 kts | 284° |
| 2026-05-05 22:48 | 54.47801 | -163.75052 | 32118 ft | 475 kts | 284° |
| 2026-05-05 22:49 | 54.49020 | -163.86128 | 32120 ft | 474 kts | 284° |
| 2026-05-05 22:49 | 54.50234 | -163.97252 | 32120 ft | 475 kts | 284° |
| 2026-05-05 22:50 | 54.51442 | -164.08421 | 32113 ft | 476 kts | 284° |
| 2026-05-05 22:50 | 54.52638 | -164.19583 | 32112 ft | 477 kts | 284° |
| 2026-05-05 22:51 | 54.53827 | -164.30783 | 32112 ft | 478 kts | 284° |
| 2026-05-05 22:51 | 54.54999 | -164.41930 | 32093 ft | 476 kts | 284° |
| 2026-05-05 22:52 | 54.56165 | -164.53113 | 32076 ft | 476 kts | 284° |
| 2026-05-05 22:52 | 54.57323 | -164.64329 | 32051 ft | 478 kts | 284° |
| 2026-05-05 22:53 | 54.58473 | -164.75586 | 32028 ft | 477 kts | 284° |
| 2026-05-05 22:53 | 54.59609 | -164.86798 | 32060 ft | 479 kts | 284° |
| 2026-05-05 22:54 | 54.60740 | -164.98085 | 32104 ft | 479 kts | 284° |
| 2026-05-05 22:54 | 54.61858 | -165.09348 | 32124 ft | 478 kts | 284° |
| 2026-05-05 22:55 | 54.62967 | -165.20624 | 32126 ft | 480 kts | 284° |
| 2026-05-05 22:55 | 54.64065 | -165.31911 | 32131 ft | 479 kts | 284° |
| 2026-05-05 22:56 | 54.65156 | -165.43234 | 32137 ft | 479 kts | 284° |
| 2026-05-05 22:56 | 54.66236 | -165.54555 | 32139 ft | 480 kts | 284° |
| 2026-05-05 22:57 | 54.67302 | -165.65852 | 32141 ft | 479 kts | 284° |
| 2026-05-05 22:57 | 54.68364 | -165.77229 | 32142 ft | 480 kts | 284° |
| 2026-05-05 22:58 | 54.69408 | -165.88519 | 32141 ft | 480 kts | 284° |
| 2026-05-05 22:58 | 54.70446 | -165.99876 | 32138 ft | 481 kts | 284° |
| 2026-05-05 22:59 | 54.71473 | -166.11232 | 32149 ft | 481 kts | 284° |
| 2026-05-05 22:59 | 54.72493 | -166.22636 | 32151 ft | 481 kts | 284° |
| 2026-05-05 23:00 | 54.74000 | -166.39722 | 32152 ft | 479 kts | 284° |
| 2026-05-05 23:00 | 54.74987 | -166.51054 | 32156 ft | 480 kts | 284° |
| 2026-05-05 23:01 | 54.75963 | -166.62401 | 32155 ft | 478 kts | 284° |
| 2026-05-05 23:01 | 54.76934 | -166.73819 | 32160 ft | 480 kts | 283° |
| 2026-05-05 23:02 | 54.77889 | -166.85164 | 32179 ft | 484 kts | 283° |
| 2026-05-05 23:02 | 54.78374 | -166.90974 | 32463 ft | 485 kts | 283° |
| 2026-05-05 23:02 | 54.78843 | -166.96649 | 32996 ft | 480 kts | 283° |
| 2026-05-05 23:03 | 54.79310 | -167.02328 | 33520 ft | 475 kts | 283° |
| 2026-05-05 23:03 | 54.79770 | -167.07964 | 33910 ft | 472 kts | 283° |
| 2026-05-05 23:03 | 54.80222 | -167.13510 | 34128 ft | 472 kts | 283° |
| 2026-05-05 23:03 | 54.80680 | -167.19157 | 34160 ft | 472 kts | 282° |
| 2026-05-05 23:04 | 54.81578 | -167.30356 | 34171 ft | 470 kts | 282° |
| 2026-05-05 23:04 | 54.82461 | -167.41490 | 34165 ft | 470 kts | 283° |
| 2026-05-05 23:05 | 54.83340 | -167.52710 | 34171 ft | 469 kts | 282° |
| 2026-05-05 23:05 | 54.84206 | -167.63901 | 34167 ft | 469 kts | 282° |
| 2026-05-05 23:06 | 54.85056 | -167.75026 | 34167 ft | 470 kts | 282° |
| 2026-05-05 23:06 | 54.85901 | -167.86227 | 34173 ft | 469 kts | 282° |
| 2026-05-05 23:07 | 54.86736 | -167.97433 | 34167 ft | 469 kts | 282° |
| 2026-05-05 23:07 | 54.87557 | -168.08600 | 34169 ft | 468 kts | 282° |
| 2026-05-05 23:08 | 54.88366 | -168.19734 | 34170 ft | 467 kts | 282° |
| 2026-05-05 23:08 | 54.89166 | -168.30911 | 34177 ft | 466 kts | 282° |
| 2026-05-05 23:09 | 54.89949 | -168.41977 | 34174 ft | 466 kts | 282° |
| 2026-05-05 23:09 | 54.90727 | -168.53119 | 34163 ft | 466 kts | 282° |
| 2026-05-05 23:10 | 54.91495 | -168.64281 | 34173 ft | 465 kts | 282° |
| 2026-05-05 23:10 | 54.92246 | -168.75345 | 34176 ft | 464 kts | 281° |
| 2026-05-05 23:11 | 54.92992 | -168.86472 | 34185 ft | 463 kts | 281° |
| 2026-05-05 23:11 | 54.93720 | -168.97494 | 34187 ft | 464 kts | 281° |
| 2026-05-05 23:12 | 54.94444 | -169.08626 | 34189 ft | 463 kts | 281° |
| 2026-05-05 23:12 | 54.95149 | -169.19620 | 34184 ft | 462 kts | 281° |
| 2026-05-05 23:13 | 54.95851 | -169.30710 | 34194 ft | 461 kts | 281° |
| 2026-05-05 23:13 | 54.96534 | -169.41682 | 34179 ft | 459 kts | 281° |
| 2026-05-05 23:14 | 54.97211 | -169.52705 | 34186 ft | 458 kts | 281° |
| 2026-05-05 23:14 | 54.97873 | -169.63650 | 34186 ft | 456 kts | 281° |
| 2026-05-05 23:15 | 54.98526 | -169.74611 | 34184 ft | 456 kts | 280° |
| 2026-05-05 23:15 | 54.99167 | -169.85551 | 34188 ft | 456 kts | 279° |
| 2026-05-05 23:16 | 54.99797 | -169.96460 | 34186 ft | 455 kts | 280° |
| 2026-05-05 23:16 | 55.00289 | -170.07402 | 34194 ft | 455 kts | 278° |
| 2026-05-05 23:17 | 55.00732 | -170.18333 | 34174 ft | 455 kts | 278° |
| 2026-05-05 23:17 | 55.01165 | -170.29308 | 34170 ft | 453 kts | 278° |
| 2026-05-05 23:18 | 55.01582 | -170.40178 | 34174 ft | 451 kts | 278° |
| 2026-05-05 23:18 | 55.01989 | -170.51041 | 34190 ft | 451 kts | 279° |
| 2026-05-05 23:19 | 55.02383 | -170.61858 | 34194 ft | 448 kts | 279° |
| 2026-05-05 23:19 | 55.02768 | -170.72665 | 34198 ft | 449 kts | 278° |
| 2026-05-05 23:20 | 55.03140 | -170.83431 | 34202 ft | 445 kts | 278° |
| 2026-05-05 23:20 | 55.03502 | -170.94138 | 34208 ft | 446 kts | 278° |
| 2026-05-05 23:21 | 55.03854 | -171.04854 | 34207 ft | 443 kts | 278° |
| 2026-05-05 23:21 | 55.04198 | -171.15595 | 34210 ft | 445 kts | 278° |
| 2026-05-05 23:22 | 55.04530 | -171.26274 | 34191 ft | 442 kts | 278° |
| 2026-05-05 23:22 | 55.04853 | -171.36911 | 34195 ft | 444 kts | 278° |
| 2026-05-05 23:23 | 55.05164 | -171.47569 | 34202 ft | 439 kts | 278° |
| 2026-05-05 23:23 | 55.05469 | -171.58225 | 34194 ft | 441 kts | 278° |
| 2026-05-05 23:24 | 55.05760 | -171.68777 | 34195 ft | 440 kts | 277° |
| 2026-05-05 23:24 | 55.06045 | -171.79408 | 34214 ft | 440 kts | 277° |
| 2026-05-05 23:25 | 55.06319 | -171.90031 | 34205 ft | 441 kts | 277° |
| 2026-05-05 23:25 | 55.06585 | -172.00685 | 34198 ft | 439 kts | 277° |
| 2026-05-05 23:26 | 55.06840 | -172.11275 | 34223 ft | 438 kts | 277° |
| 2026-05-05 23:26 | 55.07084 | -172.21777 | 34220 ft | 435 kts | 277° |
| 2026-05-05 23:27 | 55.07319 | -172.32274 | 34206 ft | 433 kts | 277° |
| 2026-05-05 23:27 | 55.07542 | -172.42671 | 34204 ft | 427 kts | 277° |
| 2026-05-05 23:28 | 55.07757 | -172.53017 | 34204 ft | 429 kts | 277° |
| 2026-05-05 23:28 | 55.07960 | -172.63284 | 34202 ft | 425 kts | 277° |
| 2026-05-05 23:29 | 55.08155 | -172.73532 | 34212 ft | 426 kts | 277° |
| 2026-05-05 23:29 | 55.08340 | -172.83797 | 34200 ft | 419 kts | 277° |
| 2026-05-05 23:30 | 55.08514 | -172.93857 | 34201 ft | 415 kts | 276° |
| 2026-05-05 23:30 | 55.08680 | -173.03888 | 34216 ft | 416 kts | 276° |
| 2026-05-05 23:31 | 55.08839 | -173.13991 | 34203 ft | 419 kts | 276° |
| 2026-05-05 23:31 | 55.08987 | -173.24008 | 34205 ft | 415 kts | 276° |
| 2026-05-05 23:32 | 55.09127 | -173.34003 | 34198 ft | 414 kts | 276° |
| 2026-05-05 23:32 | 55.09261 | -173.44045 | 34196 ft | 415 kts | 276° |
| 2026-05-05 23:33 | 55.09383 | -173.54044 | 34203 ft | 414 kts | 276° |
| 2026-05-05 23:33 | 55.09500 | -173.64094 | 34198 ft | 414 kts | 276° |
| 2026-05-05 23:34 | 55.09607 | -173.74114 | 34211 ft | 416 kts | 275° |
| 2026-05-05 23:34 | 55.09707 | -173.84145 | 34210 ft | 415 kts | 275° |
| 2026-05-05 23:35 | 55.09798 | -173.94180 | 34211 ft | 415 kts | 275° |
| 2026-05-05 23:35 | 55.09881 | -174.04222 | 34209 ft | 413 kts | 274° |
| 2026-05-05 23:36 | 55.09955 | -174.14201 | 34204 ft | 413 kts | 274° |
| 2026-05-05 23:36 | 55.10021 | -174.24165 | 34218 ft | 414 kts | 275° |
| 2026-05-05 23:37 | 55.10079 | -174.34158 | 34216 ft | 413 kts | 275° |
| 2026-05-05 23:37 | 55.10129 | -174.44162 | 34217 ft | 414 kts | 275° |
| 2026-05-05 23:38 | 55.10170 | -174.54132 | 34201 ft | 414 kts | 274° |
| 2026-05-05 23:38 | 55.10204 | -174.64169 | 34200 ft | 412 kts | 274° |
| 2026-05-05 23:39 | 55.10229 | -174.74106 | 34214 ft | 415 kts | 274° |
| 2026-05-05 23:39 | 55.10246 | -174.84076 | 34217 ft | 415 kts | 273° |
| 2026-05-05 23:40 | 55.10255 | -174.94063 | 34215 ft | 412 kts | 273° |
| 2026-05-05 23:40 | 55.10256 | -175.04009 | 34214 ft | 411 kts | 273° |
| 2026-05-05 23:41 | 55.10249 | -175.14020 | 34206 ft | 414 kts | 273° |
| 2026-05-05 23:41 | 55.10232 | -175.23932 | 34206 ft | 407 kts | 273° |
| 2026-05-05 23:42 | 55.10210 | -175.33859 | 34198 ft | 411 kts | 272° |
| 2026-05-05 23:42 | 55.10178 | -175.43817 | 34191 ft | 411 kts | 272° |
| 2026-05-05 23:43 | 55.10138 | -175.53731 | 34186 ft | 410 kts | 272° |
| 2026-05-05 23:43 | 55.10091 | -175.63600 | 34183 ft | 412 kts | 272° |
| 2026-05-05 23:44 | 55.10035 | -175.73524 | 34193 ft | 411 kts | 271° |
| 2026-05-05 23:44 | 55.09971 | -175.83479 | 34190 ft | 409 kts | 271° |
| 2026-05-05 23:45 | 55.09899 | -175.93463 | 34180 ft | 412 kts | 271° |
| 2026-05-05 23:45 | 55.09819 | -176.03352 | 34177 ft | 411 kts | 270° |
| 2026-05-05 23:46 | 55.09731 | -176.13324 | 34171 ft | 412 kts | 270° |
| 2026-05-05 23:46 | 55.09634 | -176.23259 | 34169 ft | 412 kts | 270° |
| 2026-05-05 23:47 | 55.09529 | -176.33334 | 34165 ft | 415 kts | 269° |
| 2026-05-05 23:47 | 55.09415 | -176.43298 | 34162 ft | 412 kts | 269° |
| 2026-05-05 23:48 | 55.09294 | -176.53293 | 34160 ft | 415 kts | 269° |
| 2026-05-05 23:48 | 55.09164 | -176.63356 | 34154 ft | 417 kts | 269° |
| 2026-05-05 23:49 | 55.09025 | -176.73412 | 34164 ft | 415 kts | 268° |
| 2026-05-05 23:49 | 55.08879 | -176.83388 | 34161 ft | 418 kts | 268° |
| 2026-05-05 23:50 | 55.08723 | -176.93495 | 34159 ft | 418 kts | 267° |
| 2026-05-05 23:50 | 55.08559 | -177.03558 | 34155 ft | 416 kts | 268° |
| 2026-05-05 23:51 | 55.08387 | -177.13638 | 34151 ft | 418 kts | 268° |
| 2026-05-05 23:51 | 55.08207 | -177.23703 | 34150 ft | 417 kts | 267° |
| 2026-05-05 23:52 | 55.08017 | -177.33829 | 34150 ft | 418 kts | 267° |
| 2026-05-05 23:52 | 55.07819 | -177.43945 | 34160 ft | 419 kts | 267° |
| 2026-05-05 23:53 | 55.07613 | -177.54002 | 34160 ft | 418 kts | 266° |
| 2026-05-05 23:53 | 55.07398 | -177.64121 | 34150 ft | 420 kts | 267° |
| 2026-05-05 23:54 | 55.07174 | -177.74266 | 34162 ft | 421 kts | 266° |
| 2026-05-05 23:54 | 55.06940 | -177.84505 | 34158 ft | 422 kts | 266° |
| 2026-05-05 23:55 | 55.06699 | -177.94655 | 34154 ft | 422 kts | 266° |
| 2026-05-05 23:55 | 55.06447 | -178.04889 | 34146 ft | 424 kts | 266° |
| 2026-05-05 23:56 | 55.06188 | -178.15074 | 34148 ft | 421 kts | 266° |
| 2026-05-05 23:56 | 55.05923 | -178.25183 | 34136 ft | 421 kts | 265° |
| 2026-05-05 23:57 | 55.05648 | -178.35352 | 34129 ft | 418 kts | 265° |
| 2026-05-05 23:57 | 55.05365 | -178.45456 | 34135 ft | 420 kts | 265° |
| 2026-05-05 23:58 | 55.05076 | -178.55522 | 34127 ft | 417 kts | 265° |
| 2026-05-05 23:58 | 55.04778 | -178.65596 | 34130 ft | 418 kts | 264° |
| 2026-05-05 23:59 | 55.04474 | -178.75592 | 34126 ft | 415 kts | 264° |
| 2026-05-05 23:59 | 55.04159 | -178.85660 | 34132 ft | 415 kts | 264° |
| 2026-05-06 00:00 | 55.03838 | -178.95676 | 34114 ft | 416 kts | 263° |
| 2026-05-06 00:00 | 55.03513 | -179.05563 | 34123 ft | 413 kts | 263° |
| 2026-05-06 00:01 | 55.03177 | -179.15541 | 34131 ft | 414 kts | 263° |
| 2026-05-06 00:01 | 55.02831 | -179.25551 | 34122 ft | 414 kts | 263° |
| 2026-05-06 00:02 | 55.02480 | -179.35469 | 34110 ft | 414 kts | 263° |
| 2026-05-06 00:02 | 55.02118 | -179.45473 | 34107 ft | 412 kts | 262° |
| 2026-05-06 00:03 | 55.01749 | -179.55421 | 34122 ft | 414 kts | 262° |
| 2026-05-06 00:03 | 55.01374 | -179.65358 | 34126 ft | 413 kts | 262° |
| 2026-05-06 00:04 | 55.00987 | -179.75374 | 34113 ft | 413 kts | 261° |
| 2026-05-06 00:04 | 55.00595 | -179.85307 | 34117 ft | 413 kts | 261° |
| 2026-05-06 00:05 | 54.99930 | 179.99800 | 34109 ft | 411 kts | 259° |
| 2026-05-06 00:06 | 54.99237 | 179.89917 | 34096 ft | 414 kts | 258° |
| 2026-05-06 00:06 | 54.98523 | 179.80049 | 34084 ft | 415 kts | 259° |
| 2026-05-06 00:07 | 54.97791 | 179.70146 | 34064 ft | 415 kts | 258° |
| 2026-05-06 00:07 | 54.97042 | 179.60181 | 34056 ft | 417 kts | 258° |
| 2026-05-06 00:08 | 54.96289 | 179.50285 | 34058 ft | 416 kts | 258° |
| 2026-05-06 00:08 | 54.95514 | 179.40242 | 34055 ft | 420 kts | 258° |
| 2026-05-06 00:09 | 54.94738 | 179.30264 | 34056 ft | 416 kts | 258° |
| 2026-05-06 00:09 | 54.93954 | 179.20331 | 34054 ft | 419 kts | 257° |
| 2026-05-06 00:10 | 54.93157 | 179.10319 | 34041 ft | 417 kts | 257° |
| 2026-05-06 00:10 | 54.92357 | 179.00386 | 34041 ft | 422 kts | 257° |
| 2026-05-06 00:11 | 54.91538 | 178.90328 | 34032 ft | 420 kts | 257° |
| 2026-05-06 00:11 | 54.90709 | 178.80260 | 34025 ft | 425 kts | 257° |
| 2026-05-06 00:12 | 54.89877 | 178.70233 | 34024 ft | 424 kts | 257° |
| 2026-05-06 00:12 | 54.89024 | 178.60082 | 34020 ft | 426 kts | 257° |
| 2026-05-06 00:13 | 54.88166 | 178.49965 | 34022 ft | 427 kts | 256° |
| 2026-05-06 00:13 | 54.87293 | 178.39784 | 34006 ft | 427 kts | 256° |
| 2026-05-06 00:14 | 54.86413 | 178.29614 | 34015 ft | 428 kts | 256° |
| 2026-05-06 00:14 | 54.85526 | 178.19481 | 34017 ft | 428 kts | 256° |
| 2026-05-06 00:15 | 54.84627 | 178.09302 | 33994 ft | 429 kts | 255° |
| 2026-05-06 00:15 | 54.83716 | 177.99080 | 33994 ft | 428 kts | 256° |
| 2026-05-06 00:16 | 54.82793 | 177.88849 | 33985 ft | 433 kts | 255° |
| 2026-05-06 00:16 | 54.81864 | 177.78632 | 33984 ft | 434 kts | 255° |
| 2026-05-06 00:17 | 54.80915 | 177.68306 | 33976 ft | 434 kts | 255° |
| 2026-05-06 00:17 | 54.79959 | 177.57994 | 33967 ft | 435 kts | 255° |
| 2026-05-06 00:18 | 54.78990 | 177.47646 | 33960 ft | 438 kts | 255° |
| 2026-05-06 00:18 | 54.78014 | 177.37317 | 33961 ft | 438 kts | 255° |
| 2026-05-06 00:19 | 54.77015 | 177.26863 | 33961 ft | 443 kts | 255° |
| 2026-05-06 00:19 | 54.76014 | 177.16461 | 33949 ft | 442 kts | 254° |
| 2026-05-06 00:20 | 54.74999 | 177.06014 | 33946 ft | 441 kts | 254° |
| 2026-05-06 00:20 | 54.73970 | 176.95549 | 33943 ft | 445 kts | 254° |
| 2026-05-06 00:21 | 54.72926 | 176.85013 | 33935 ft | 446 kts | 254° |
| 2026-05-06 00:21 | 54.71871 | 176.74457 | 33929 ft | 449 kts | 254° |
| 2026-05-06 00:22 | 54.70799 | 176.63838 | 33923 ft | 452 kts | 254° |
| 2026-05-06 00:22 | 54.69714 | 176.53180 | 33917 ft | 453 kts | 254° |
| 2026-05-06 00:23 | 54.68621 | 176.42541 | 33915 ft | 452 kts | 254° |
| 2026-05-06 00:23 | 54.67511 | 176.31847 | 33914 ft | 457 kts | 253° |
| 2026-05-06 00:24 | 54.66388 | 176.21107 | 33907 ft | 457 kts | 253° |
| 2026-05-06 00:24 | 54.65253 | 176.10365 | 33900 ft | 458 kts | 253° |
| 2026-05-06 00:25 | 54.64096 | 175.99512 | 33881 ft | 463 kts | 254° |
| 2026-05-06 00:25 | 54.62932 | 175.88670 | 33881 ft | 460 kts | 253° |
| 2026-05-06 00:26 | 54.61749 | 175.77774 | 33868 ft | 467 kts | 253° |
| 2026-05-06 00:26 | 54.60558 | 175.66881 | 33858 ft | 464 kts | 254° |
| 2026-05-06 00:27 | 54.59355 | 175.55984 | 33855 ft | 466 kts | 254° |
| 2026-05-06 00:27 | 54.58135 | 175.45023 | 33844 ft | 466 kts | 253° |
| 2026-05-06 00:28 | 54.56905 | 175.34073 | 33829 ft | 469 kts | 253° |
| 2026-05-06 00:28 | 54.55659 | 175.23079 | 33827 ft | 472 kts | 253° |
| 2026-05-06 00:29 | 54.54399 | 175.12041 | 33815 ft | 470 kts | 253° |
| 2026-05-06 00:29 | 54.53123 | 175.00974 | 33821 ft | 472 kts | 253° |
| 2026-05-06 00:30 | 54.51846 | 174.89989 | 33812 ft | 473 kts | 253° |
| 2026-05-06 00:30 | 54.50545 | 174.78899 | 33793 ft | 477 kts | 253° |
| 2026-05-06 00:31 | 54.49230 | 174.67766 | 33785 ft | 477 kts | 253° |
| 2026-05-06 00:31 | 54.47905 | 174.56645 | 33777 ft | 475 kts | 253° |
| 2026-05-06 00:32 | 54.46570 | 174.45541 | 33768 ft | 478 kts | 253° |
| 2026-05-06 00:32 | 54.45221 | 174.34413 | 33747 ft | 479 kts | 252° |
| 2026-05-06 00:33 | 54.43860 | 174.23270 | 33738 ft | 479 kts | 252° |
| 2026-05-06 00:33 | 54.42488 | 174.12140 | 33760 ft | 480 kts | 252° |
| 2026-05-06 00:34 | 54.41099 | 174.00952 | 33734 ft | 481 kts | 252° |
| 2026-05-06 00:34 | 54.39698 | 173.89758 | 33712 ft | 481 kts | 252° |
| 2026-05-06 00:35 | 54.38297 | 173.78662 | 33727 ft | 482 kts | 252° |
| 2026-05-06 00:35 | 54.36869 | 173.67439 | 33709 ft | 483 kts | 252° |
| 2026-05-06 00:36 | 54.35430 | 173.56215 | 33714 ft | 483 kts | 252° |
| 2026-05-06 00:36 | 54.33985 | 173.45042 | 33688 ft | 484 kts | 252° |
| 2026-05-06 00:37 | 54.32528 | 173.33855 | 33681 ft | 485 kts | 251° |
| 2026-05-06 00:37 | 54.31060 | 173.22669 | 33687 ft | 482 kts | 251° |
| 2026-05-06 00:38 | 54.29572 | 173.11427 | 33694 ft | 486 kts | 251° |
| 2026-05-06 00:38 | 54.28075 | 173.00198 | 33629 ft | 485 kts | 251° |
| 2026-05-06 00:39 | 54.26572 | 172.89012 | 33639 ft | 486 kts | 251° |
| 2026-05-06 00:39 | 54.24802 | 172.78023 | 33649 ft | 483 kts | 246° |
| 2026-05-06 00:40 | 54.22753 | 172.67133 | 33613 ft | 483 kts | 246° |